This is the latest recevied weather packets stored in our database for station/object SQ9PDE-13. If no packets are shown the sender has not sent any weather packets the latest 10 day(s).
| Time | Temp. | Humidity | Pressure | Rain* | Wind** | Luminosity | Snow |
|---|---|---|---|---|---|---|---|
| 1777440261 | 3.33° C | 61% | 1026.7 hPa | - | - | - | - |
| 1777439961 | 3.33° C | 62% | 1026.6 hPa | - | - | - | - |
| 1777439660 | 3.33° C | 62% | 1026.6 hPa | - | - | - | - |
| 1777439359 | 3.33° C | 61% | 1026.5 hPa | - | - | - | - |
| 1777439059 | 3.89° C | 60% | 1026.5 hPa | - | - | - | - |
| 1777438758 | 3.89° C | 65% | 1027.2 hPa | - | - | - | - |
| 1777438458 | 4.44° C | 67% | 1027 hPa | - | - | - | - |
| 1777438157 | 5° C | 68% | 1027.1 hPa | - | - | - | - |
| 1777437857 | 5° C | 68% | 1026.9 hPa | - | - | - | - |
| 1777437556 | 5° C | 67% | 1026.8 hPa | - | - | - | - |
| 1777437256 | 5.56° C | 64% | 1026.6 hPa | - | - | - | - |
| 1777436955 | 6.11° C | 65% | 1026.2 hPa | - | - | - | - |
| 1777436655 | 6.11° C | 65% | 1026.1 hPa | - | - | - | - |
| 1777436354 | 6.11° C | 64% | 1025.9 hPa | - | - | - | - |
| 1777436054 | 5° C | 65% | 1026 hPa | - | - | - | - |
| 1777435753 | 4.44° C | 65% | 1025.8 hPa | - | - | - | - |
| 1777435453 | 3.89° C | 66% | 1025.9 hPa | - | - | - | - |
| 1777435152 | 3.33° C | 64% | 1025.7 hPa | - | - | - | - |
| 1777434851 | 2.78° C | 63% | 1025.7 hPa | - | - | - | - |
| 1777434551 | 2.78° C | 63% | 1025.7 hPa | - | - | - | - |
| 1777434250 | 2.78° C | 63% | 1025.6 hPa | - | - | - | - |
| 1777433950 | 2.78° C | 63% | 1025.6 hPa | - | - | - | - |
| 1777433649 | 2.78° C | 63% | 1025.5 hPa | - | - | - | - |
| 1777433349 | 2.78° C | 62% | 1025.6 hPa | - | - | - | - |
| 1777433048 | 2.78° C | 62% | 1025.6 hPa | - | - | - | - |
* Rain since midnight (hover to see other rain measurements)
** Current wind speed in m/s (hover to see current wind gust speed)